KTIW Airport Information

Runway Information
Runway 17 Length 5002 ft width 150 ft
Elevation 289 ft Threshold 0 ft Heading 187
Runway 35 Length 5002 ft Width 150 ft
Elevation 292 ft Threshold 0 ft Heading 7
Airport Frequencies
Type A/D Name SEATTLE AP Frequency 120.1 MHZ
Type ATIS Name ATIS Frequency 124.05 MHZ
Type CTAF Name CTAF Frequency 118.5 MHZ
Type GND Name GND Frequency 121.8 MHZ
Type TWR Name TWR Frequency 118.5 MHZ
Type UNIC Name UNICOM Frequency 122.95 MHZ
Airport Navaids
Airport Weather Information & NOTAM
ADDS - METARS form results

(1235 UTC 21 September 2018)
Data provider http://aviationweather.gov/metar/data/
 
METAR text: KTIW 211153Z AUTO 17005KT 10SM OVC025 14/09 A3002 RMK AO2 SLP165 70001 T01390094 10150 20139 58009
Conditions at: KTIW (TACOMA , WA, US) observed 1153 UTC 21 September 2018
Temperature: 13.9°C (57°F)
Dewpoint: 9.4°C (49°F) [RH = 74%]
Pressure (altimeter): 30.02 inches Hg (1016.7 mb)
[Sea-level pressure: 1016.5 mb]
Winds: from the S (170 degrees) at 6 MPH (5 knots; 2.6 m/s)
Visibility: 10 or more miles (16+ km)
Ceiling: 2500 feet AGL
Clouds: overcast cloud deck at 2500 feet AGL
Weather: automated observation with no human augmentation;
there may or may not be significant weather present at this time

METAR text: KTIW 211140Z AUTO 17006KT 10SM BKN026 OVC035 14/10 A3004 RMK AO2 T01390100
Conditions at: KTIW (TACOMA , WA, US) observed 1140 UTC 21 September 2018
Temperature: 13.9°C (57°F)
Dewpoint: 10.0°C (50°F) [RH = 77%]
Pressure (altimeter): 30.04 inches Hg (1017.4 mb)
Winds: from the S (170 degrees) at 7 MPH (6 knots; 3.1 m/s)
Visibility: 10 or more miles (16+ km)
Ceiling: 2600 feet AGL
Clouds: broken clouds at 2600 feet AGL
overcast cloud deck at 3500 feet AGL
Weather: automated observation with no human augmentation;
there may or may not be significant weather present at this time